KCOT

Cotulla-La Salle County Airport

Cotulla, Texas, USA
METAR KCOT 230821Z AUTO 13008KT 10SM SCT016 23/22 A2994 RMK AO2 T02330217
Observed Flight Rules
May-23 @ 08:21 UTC (20 minutes ago) Visual Flight Rules
Wind Visibility Clouds
130° at 8 knots 10 miles
  • Scattered at 1,600' AGL
Temperatures Readings
Current 23°C / 73°F
Dewpoint 22°C / 72°F
Humidity 94%
Altimeter 29.94" Hg
Pressure 1014 hPa
Elevation 140
METAR KCOT 230821Z AUTO 13008KT 10SM SCT016 23/22 A2994 RMK AO2 T02330217
Observed Flight Rules
May-23 @ 08:21 UTC
(20 minutes ago)
VFR
Wind Visibility
130° at 8 knots 10 miles
Clouds
  • Scattered at 1,600' AGL
Temperature Dewpoint
23°C / 73°F 22°C / 72°F
Humidity Altimeter Pressure
94% 29.94" Hg 1014 hPa